Time;durP1;ratioP1;P1;durP2;ratioP2;P2;SDS_P1;SDS_P2;PMS_P1;PMS_P2;Temp;Humidity;BMP_temperature;BMP_pressure;BME280_temperature;BME280_humidity;BME280_pressure;Samples;Min_cycle;Max_cycle;Signal;HPM_P1;HPM_P2
2022/12/02 07:19:44;;;;;;;14.63;4.57;;;;;;;-2.04;100.00;101047.80;1834028;77;23355;-67
2022/12/02 07:22:18;;;;;;;11.80;4.23;;;;;;;-1.95;100.00;101067.28;1724624;83;21076;-66
2022/12/02 07:24:54;;;;;;;10.80;3.40;;;;;;;-1.87;100.00;101068.30;1752706;82;21553;-67
2022/12/02 07:27:31;;;;;;;11.23;3.43;;;;;;;-1.80;100.00;101073.73;1754906;81;21096;-67
2022/12/02 07:29:58;;;;;;;10.33;3.90;;;;;;;-1.72;100.00;101072.47;1743776;81;21081;-67
2022/12/02 07:32:25;;;;;;;11.93;4.57;;;;;;;-1.62;100.00;101073.38;1762063;81;21061;-67
2022/12/02 07:34:52;;;;;;;10.37;3.33;;;;;;;-1.52;100.00;101069.40;1751070;80;21008;-68
2022/12/02 07:37:20;;;;;;;7.73;3.27;;;;;;;-1.42;100.00;101080.45;1726587;83;21084;-66
2022/12/02 07:39:47;;;;;;;13.47;3.60;;;;;;;-1.32;100.00;101072.47;1741400;81;21007;-65
2022/12/02 07:42:14;;;;;;;14.90;3.67;;;;;;;-1.21;100.00;101080.80;1763430;80;21025;-65
2022/12/02 07:44:43;;;;;;;15.77;4.00;;;;;;;-1.07;100.00;101079.31;1763076;80;21045;-75
2022/12/02 07:47:10;;;;;;;10.53;4.00;;;;;;;-0.95;100.00;101081.40;1763771;81;21029;-75
2022/12/02 07:49:37;;;;;;;16.03;4.33;;;;;;;-0.80;100.00;101076.70;1764338;80;21041;-75
2022/12/02 07:52:04;;;;;;;8.97;3.50;;;;;;;-0.64;100.00;101075.95;1762482;81;21018;-75
2022/12/02 07:54:32;;;;;;;12.30;4.33;;;;;;;-0.47;100.00;101086.62;1762235;80;21502;-75
2022/12/02 07:56:59;;;;;;;11.27;3.73;;;;;;;-0.29;100.00;101087.98;1763044;80;21078;-75
2022/12/02 07:59:27;;;;;;;15.37;3.70;;;;;;;-0.16;100.00;101093.11;1761936;81;21452;-75
2022/12/02 08:02:29;;;;;;;11.90;4.03;;;;;;;-0.07;100.00;101105.05;1763082;80;21050;-76
2022/12/02 08:04:56;;;;;;;10.17;3.40;;;;;;;0.00;100.00;101098.52;1768474;80;20983;-75
2022/12/02 08:07:25;;;;;;;11.10;3.90;;;;;;;0.03;100.00;101103.66;1772198;80;21527;-77
2022/12/02 08:09:52;;;;;;;10.40;4.00;;;;;;;0.04;100.00;101101.41;1763538;81;21050;-73
2022/12/02 08:12:19;;;;;;;13.43;3.50;;;;;;;0.03;100.00;101104.14;1758934;81;21022;-76
2022/12/02 08:14:46;;;;;;;14.87;4.10;;;;;;;0.06;100.00;101093.35;1756457;82;21048;-76
2022/12/02 08:17:14;;;;;;;9.87;3.20;;;;;;;0.12;100.00;101107.17;1756923;82;21001;-77
2022/12/02 08:19:43;;;;;;;11.73;3.80;;;;;;;0.25;100.00;101096.79;1764108;81;21085;-76
2022/12/02 08:22:10;;;;;;;7.33;3.10;;;;;;;0.37;100.00;101096.61;1765053;81;21029;-76
2022/12/02 08:24:37;;;;;;;7.63;3.50;;;;;;;0.44;100.00;101102.00;1764313;81;21696;-75
2022/12/02 08:27:04;;;;;;;10.37;3.60;;;;;;;0.45;100.00;101096.23;1770099;80;21024;-77
2022/12/02 08:29:33;;;;;;;7.00;3.47;;;;;;;0.40;100.00;101087.62;1770010;80;21535;-76
2022/12/02 08:32:01;;;;;;;6.43;3.00;;;;;;;0.42;100.00;101093.23;1765798;80;21025;-76
2022/12/02 08:34:29;;;;;;;7.83;3.43;;;;;;;0.39;100.00;101086.77;1765482;81;21041;-78
2022/12/02 08:36:56;;;;;;;7.40;3.37;;;;;;;0.37;100.00;101099.27;1775972;80;20973;-77
2022/12/02 08:39:23;;;;;;;8.70;3.70;;;;;;;0.39;100.00;101090.76;1774769;80;21024;-76
2022/12/02 08:41:50;;;;;;;10.97;4.03;;;;;;;0.37;100.00;101086.84;1765062;81;21009;-77
2022/12/02 08:44:17;;;;;;;6.93;3.57;;;;;;;0.33;100.00;101074.63;1763205;81;21013;-76
2022/12/02 08:46:44;;;;;;;8.40;3.40;;;;;;;0.28;100.00;101075.80;1763605;81;21056;-74
2022/12/02 08:49:16;;;;;;;7.57;3.33;;;;;;;0.23;100.00;101074.73;1765977;81;21049;-77
2022/12/02 08:51:43;;;;;;;4.97;2.73;;;;;;;0.15;100.00;101071.59;1767626;81;21045;-76
2022/12/02 08:54:10;;;;;;;8.97;3.60;;;;;;;0.08;100.00;101080.83;1768506;81;21001;-76
2022/12/02 08:56:37;;;;;;;9.83;4.37;;;;;;;0.01;100.00;101068.31;1769143;80;20981;-77
2022/12/02 08:59:05;;;;;;;10.47;3.80;;;;;;;-0.06;100.00;101065.09;1766681;80;21436;-76
2022/12/02 09:01:31;;;;;;;11.87;3.60;;;;;;;-0.09;100.00;101067.05;1768269;80;21042;-76
2022/12/02 09:03:58;;;;;;;6.47;3.10;;;;;;;-0.12;100.00;101062.77;1769777;80;20974;-77
2022/12/02 09:06:26;;;;;;;7.97;3.43;;;;;;;-0.15;100.00;101056.27;1767168;81;21049;-77
2022/12/02 09:08:53;;;;;;;11.73;3.50;;;;;;;-0.18;100.00;101060.39;1765140;81;21092;-77
2022/12/02 09:11:27;;;;;;;14.37;3.40;;;;;;;-0.20;100.00;101052.97;1762384;80;21372;-66
2022/12/02 09:14:06;;;;;;;7.23;3.23;;;;;;;-0.22;100.00;101047.73;1767542;81;21146;-66
2022/12/02 09:16:33;;;;;;;7.93;3.37;;;;;;;-0.23;100.00;101051.78;1769526;80;21715;-66
2022/12/02 09:19:00;;;;;;;8.13;3.60;;;;;;;-0.26;100.00;101042.66;1760488;81;21088;-65
2022/12/02 09:21:27;;;;;;;10.93;4.50;;;;;;;-0.26;100.00;101043.98;1755623;80;21073;-68
2022/12/02 09:23:54;;;;;;;5.20;3.00;;;;;;;-0.23;100.00;101039.83;1753447;80;21038;-65
2022/12/02 09:26:21;;;;;;;4.83;2.53;;;;;;;-0.19;100.00;101032.11;1737921;81;21336;-76
2022/12/02 09:28:49;;;;;;;4.53;2.60;;;;;;;-0.15;100.00;101027.02;1758036;80;21013;-75
2022/12/02 09:31:17;;;;;;;7.23;2.90;;;;;;;-0.13;100.00;101025.13;1760470;80;20990;-74
2022/12/02 12:09:19;;;;;;;5.83;2.50;;;;;;;1.96;100.00;100966.52;1795827;79;27949;-68
2022/12/02 12:12:09;;;;;;;7.93;2.90;;;;;;;1.96;100.00;100974.52;1761823;79;21021;-67
2022/12/02 12:15:00;;;;;;;9.77;3.00;;;;;;;2.02;100.00;100979.46;1770184;79;20985;-67
2022/12/02 12:17:43;;;;;;;7.60;2.50;;;;;;;2.09;100.00;100986.17;1740578;80;21118;-67
2022/12/02 12:20:20;;;;;;;9.57;2.90;;;;;;;2.18;100.00;100996.28;1762830;80;21011;-67
2022/12/02 12:22:47;;;;;;;3.65;2.25;;;;;;;2.25;100.00;100993.62;1772711;80;21070;-68
2022/12/02 12:25:33;;;;;;;5.50;2.57;;;;;;;2.26;100.00;101001.13;1763259;80;21173;-68
2022/12/02 12:28:00;;;;;;;7.00;2.27;;;;;;;2.28;100.00;101004.11;1780287;80;21006;-68
2022/12/02 12:30:27;;;;;;;8.00;2.47;;;;;;;2.28;100.00;101001.44;1782693;80;21000;-66
2022/12/02 12:32:55;;;;;;;4.87;2.20;;;;;;;2.28;100.00;101012.56;1768605;80;21053;-67
2022/12/02 12:35:23;;;;;;;6.77;2.63;;;;;;;2.27;100.00;101012.20;1762299;80;21053;-67
2022/12/02 12:37:50;;;;;;;6.27;2.43;;;;;;;2.27;100.00;101022.88;1762360;80;21069;-69
2022/12/02 12:40:20;;;;;;;6.23;2.43;;;;;;;2.25;100.00;101024.30;1750924;81;21103;-66
2022/12/02 12:42:49;;;;;;;4.20;2.43;;;;;;;2.26;100.00;101025.16;1749159;81;21152;-67
2022/12/02 12:45:16;;;;;;;5.53;2.30;;;;;;;2.25;100.00;101030.13;1748711;81;21315;-68
2022/12/02 12:47:44;;;;;;;9.87;2.83;;;;;;;2.25;100.00;101031.47;1745938;81;21058;-68
2022/12/02 12:50:11;;;;;;;19.07;4.03;;;;;;;2.26;100.00;101032.67;1755602;80;20951;-67
2022/12/02 12:52:39;;;;;;;5.67;2.43;;;;;;;2.24;100.00;101037.25;1766037;80;21045;-67
2022/12/02 12:55:06;;;;;;;6.90;2.20;;;;;;;2.23;100.00;101040.89;1764055;80;21038;-68
2022/12/02 12:57:34;;;;;;;6.33;2.57;;;;;;;2.22;100.00;101037.83;1768734;80;21523;-66
2022/12/02 13:00:03;;;;;;;6.03;2.30;;;;;;;2.20;100.00;101047.73;1756298;80;21026;-66
2022/12/02 13:02:31;;;;;;;8.90;2.67;;;;;;;2.20;100.00;101048.23;1767237;80;21539;-67
2022/12/02 13:05:01;;;;;;;17.13;6.87;;;;;;;2.20;100.00;101048.23;1756879;80;21042;-66
2022/12/02 13:07:28;;;;;;;11.10;3.47;;;;;;;2.19;100.00;101055.35;1761180;80;21530;-67
2022/12/02 13:09:55;;;;;;;8.57;2.63;;;;;;;2.18;100.00;101054.98;1772678;80;21039;-67
2022/12/02 13:12:23;;;;;;;4.33;2.60;;;;;;;2.19;100.00;101058.02;1756178;81;21070;-68
2022/12/02 13:14:50;;;;;;;4.07;2.10;;;;;;;2.19;100.00;101070.02;1762892;80;21085;-67
2022/12/02 13:17:17;;;;;;;6.53;1.90;;;;;;;2.19;100.00;101069.17;1768363;80;21034;-67
2022/12/02 13:19:44;;;;;;;7.70;2.23;;;;;;;2.17;100.00;101068.41;1775586;80;21056;-66
2022/12/02 13:22:12;;;;;;;5.77;2.43;;;;;;;2.16;100.00;101074.23;1771965;80;21013;-67
2022/12/02 13:24:39;;;;;;;7.60;2.40;;;;;;;2.15;100.00;101071.17;1769354;80;20966;-67
2022/12/02 13:27:06;;;;;;;3.27;2.00;;;;;;;2.14;100.00;101078.78;1773818;80;21483;-68
2022/12/02 13:29:33;;;;;;;5.93;2.17;;;;;;;2.14;100.00;101080.59;1769072;80;20967;-67
2022/12/02 13:32:00;;;;;;;6.47;2.50;;;;;;;2.13;100.00;101082.91;1776759;80;20993;-67
2022/12/02 13:34:28;;;;;;;7.87;2.17;;;;;;;2.12;100.00;101087.35;1769839;80;21480;-68
2022/12/02 13:36:55;;;;;;;6.70;2.77;;;;;;;2.13;100.00;101094.91;1763762;80;20959;-67
2022/12/02 13:39:22;;;;;;;8.23;3.33;;;;;;;2.11;100.00;101095.45;1771467;80;20995;-68
2022/12/02 13:41:49;;;;;;;14.90;3.23;;;;;;;2.09;100.00;101090.23;1769327;80;21053;-68
2022/12/02 13:44:18;;;;;;;8.20;3.07;;;;;;;2.09;100.00;101096.90;1758406;80;21030;-67
2022/12/02 13:46:45;;;;;;;9.47;3.30;;;;;;;2.08;100.00;101097.35;1770485;80;21044;-68
2022/12/02 13:49:13;;;;;;;4.97;2.80;;;;;;;2.06;100.00;101103.74;1778879;80;21099;-68
2022/12/02 13:51:41;;;;;;;9.33;3.40;;;;;;;2.05;100.00;101111.34;1754729;80;21106;-68
2022/12/02 13:54:08;;;;;;;7.67;2.43;;;;;;;2.04;100.00;101110.50;1779496;80;20967;-70
2022/12/02 13:56:45;;;;;;;5.87;2.40;;;;;;;2.04;100.00;101109.65;1773710;81;21078;-68
2022/12/02 13:59:23;;;;;;;10.67;4.10;;;;;;;2.03;100.00;101110.58;1752823;80;21505;-67
2022/12/02 14:01:50;;;;;;;15.03;4.90;;;;;;;2.00;100.00;101110.75;1768260;81;21021;-67
2022/12/02 14:04:19;;;;;;;6.80;3.00;;;;;;;1.98;100.00;101114.84;1759400;80;21061;-67
2022/12/02 14:06:47;;;;;;;7.60;3.03;;;;;;;1.98;100.00;101115.33;1760506;80;21611;-67
2022/12/02 14:09:14;;;;;;;5.37;3.03;;;;;;;1.96;100.00;101120.75;1767584;80;21059;-66
2022/12/02 14:11:41;;;;;;;6.27;3.20;;;;;;;1.98;100.00;101129.52;1779882;79;21570;-66
2022/12/02 14:14:12;;;;;;;9.20;3.77;;;;;;;1.99;100.00;101132.58;1804248;78;21005;-68
2022/12/02 14:16:50;;;;;;;5.37;2.90;;;;;;;1.99;100.00;101132.58;1798638;78;21010;-66
2022/12/02 14:19:21;;;;;;;3.80;2.60;;;;;;;1.96;100.00;101135.42;1797995;79;20986;-66
2022/12/02 14:21:50;;;;;;;8.60;2.43;;;;;;;1.93;100.00;101137.41;1803349;79;21507;-68
2022/12/02 14:24:19;;;;;;;6.47;2.67;;;;;;;1.88;100.00;101137.69;1696041;79;21043;-68
2022/12/02 14:26:46;;;;;;;8.07;2.77;;;;;;;1.85;100.00;101137.86;1794456;79;20990;-68
2022/12/02 14:29:13;;;;;;;6.70;3.27;;;;;;;1.81;100.00;101136.33;1808009;79;21042;-67
2022/12/02 14:31:41;;;;;;;8.60;2.90;;;;;;;1.78;100.00;101148.01;1810192;79;21027;-68
2022/12/02 14:34:08;;;;;;;7.63;2.70;;;;;;;1.76;100.00;101148.57;1787070;79;21026;-68
2022/12/02 14:36:36;;;;;;;11.23;2.80;;;;;;;1.73;100.00;101151.89;1755449;80;21077;-69
2022/12/02 14:39:08;;;;;;;7.27;2.70;;;;;;;1.70;100.00;101152.94;1770909;80;21003;-67
2022/12/02 14:41:36;;;;;;;9.10;2.70;;;;;;;1.66;100.00;101156.70;1771150;80;21085;-68
2022/12/02 14:44:04;;;;;;;5.77;2.60;;;;;;;1.64;100.00;101159.93;1761351;80;21073;-68
2022/12/02 14:46:32;;;;;;;6.23;2.93;;;;;;;1.61;100.00;101164.09;1766473;80;21028;-67
2022/12/02 14:49:00;;;;;;;2.97;2.27;;;;;;;1.56;100.00;101159.48;1767772;80;21028;-69
2022/12/02 14:51:27;;;;;;;5.37;3.20;;;;;;;1.53;100.00;101157.87;1767178;81;21051;-68
2022/12/02 14:53:54;;;;;;;6.87;3.03;;;;;;;1.51;100.00;101159.28;1766430;81;21054;-66
2022/12/02 14:56:21;;;;;;;5.93;2.60;;;;;;;1.48;100.00;101162.11;1766178;80;21029;-68
2022/12/02 14:58:48;;;;;;;6.73;2.83;;;;;;;1.48;100.00;101168.77;1772490;80;21496;-69
2022/12/02 15:01:15;;;;;;;11.47;4.43;;;;;;;1.46;100.00;101165.34;1763706;80;21043;-67
2022/12/02 15:03:42;;;;;;;7.27;3.50;;;;;;;1.44;100.00;101169.05;1766561;80;20982;-68
2022/12/02 15:06:10;;;;;;;8.73;2.83;;;;;;;1.42;100.00;101172.28;1774344;80;21037;-67
2022/12/02 15:08:37;;;;;;;6.60;2.80;;;;;;;1.40;100.00;101171.47;1758837;79;21541;-67
2022/12/02 15:11:04;;;;;;;7.13;2.70;;;;;;;1.38;100.00;101173.36;1773378;79;21015;-68
2022/12/02 15:13:31;;;;;;;7.67;2.90;;;;;;;1.36;100.00;101179.26;1800601;79;21522;-67
2022/12/02 15:15:59;;;;;;;8.87;2.70;;;;;;;1.36;100.00;101181.92;1802959;79;21063;-68
2022/12/02 15:18:26;;;;;;;5.37;2.57;;;;;;;1.34;100.00;101187.33;1801880;79;21052;-67
2022/12/02 15:20:53;;;;;;;9.07;3.50;;;;;;;1.32;100.00;101190.08;1811692;78;21078;-67
2022/12/02 15:23:20;;;;;;;15.23;3.80;;;;;;;1.30;100.00;101194.64;1806538;79;21025;-68
2022/12/02 15:25:47;;;;;;;12.57;3.87;;;;;;;1.28;100.00;101202.34;1812501;79;21015;-69
2022/12/02 15:28:14;;;;;;;13.43;3.90;;;;;;;1.22;100.00;101201.32;1808352;79;21018;-67
2022/12/02 15:30:42;;;;;;;8.93;3.30;;;;;;;1.16;100.00;101210.98;1805700;79;21019;-68
2022/12/02 15:33:09;;;;;;;9.00;3.80;;;;;;;1.05;100.00;101213.75;1803614;79;21034;-68
2022/12/02 15:35:37;;;;;;;13.10;3.70;;;;;;;0.97;100.00;101215.94;1807071;78;21512;-69
2022/12/02 15:38:04;;;;;;;12.23;3.80;;;;;;;0.87;100.00;101214.25;1805492;79;21034;-68
2022/12/02 15:40:31;;;;;;;9.03;3.83;;;;;;;0.78;100.00;101224.05;1804835;78;21486;-69
2022/12/02 15:42:58;;;;;;;11.80;4.00;;;;;;;0.68;100.00;101217.47;1810268;79;20971;-68
2022/12/02 15:45:25;;;;;;;8.60;4.00;;;;;;;0.59;100.00;101224.13;1810098;79;21011;-68
2022/12/02 15:47:53;;;;;;;10.20;3.53;;;;;;;0.52;100.00;101220.05;1808354;78;20999;-67
2022/12/02 15:50:20;;;;;;;13.73;4.30;;;;;;;0.45;100.00;101225.29;1809440;79;21023;-69
2022/12/02 15:52:47;;;;;;;9.70;4.00;;;;;;;0.40;100.00;101224.18;1807104;79;21065;-68
2022/12/02 15:55:14;;;;;;;9.97;4.40;;;;;;;0.35;100.00;101228.42;1804832;79;21034;-68
2022/12/02 15:57:42;;;;;;;21.33;8.53;;;;;;;0.32;100.00;101227.67;1802866;79;21449;-68
2022/12/02 16:00:11;;;;;;;10.07;4.27;;;;;;;0.29;100.00;101226.05;1800775;79;21003;-68
2022/12/02 16:02:39;;;;;;;7.63;3.73;;;;;;;0.26;100.00;101231.52;1801205;79;21568;-68
2022/12/02 16:05:07;;;;;;;6.93;3.30;;;;;;;0.25;100.00;101232.91;1803930;79;21070;-68
2022/12/02 16:07:34;;;;;;;8.10;3.70;;;;;;;0.22;100.00;101229.09;1806696;78;21467;-67
2022/12/02 16:10:01;;;;;;;10.23;4.00;;;;;;;0.19;100.00;101231.42;1803638;79;21508;-69
2022/12/02 16:12:29;;;;;;;7.70;3.77;;;;;;;0.14;100.00;101231.66;1802211;79;21025;-67
2022/12/02 16:14:57;;;;;;;14.40;4.60;;;;;;;0.12;100.00;101226.86;1806659;79;21069;-67
2022/12/02 16:17:25;;;;;;;15.83;4.63;;;;;;;0.10;100.00;101234.54;1803418;79;21017;-67
2022/12/02 16:19:52;;;;;;;13.77;4.37;;;;;;;0.05;100.00;101233.42;1813657;79;21001;-67
2022/12/02 16:22:20;;;;;;;13.37;4.33;;;;;;;0.02;100.00;101232.27;1801626;78;21026;-66
2022/12/02 16:24:47;;;;;;;10.43;4.10;;;;;;;-0.03;100.00;101235.12;1803383;79;21054;-66
2022/12/02 16:27:15;;;;;;;13.37;4.50;;;;;;;-0.04;100.00;101233.87;1799689;79;21124;-67
2022/12/02 16:29:42;;;;;;;16.50;4.90;;;;;;;-0.06;100.00;101231.28;1804712;79;21074;-66
2022/12/02 16:32:09;;;;;;;13.80;4.27;;;;;;;-0.09;100.00;101234.11;1765844;79;20994;-67
2022/12/02 16:34:37;;;;;;;15.13;4.30;;;;;;;-0.12;100.00;101232.92;1807857;79;21022;-69
2022/12/02 16:37:04;;;;;;;12.07;4.30;;;;;;;-0.13;100.00;101236.50;1809282;79;21050;-68
2022/12/02 16:39:31;;;;;;;11.20;4.17;;;;;;;-0.16;100.00;101244.64;1800531;78;21013;-68
2022/12/02 16:41:58;;;;;;;10.43;4.37;;;;;;;-0.18;100.00;101237.66;1804557;79;21000;-68
2022/12/02 16:44:26;;;;;;;10.03;4.13;;;;;;;-0.22;100.00;101236.94;1803880;79;21023;-67
2022/12/02 16:46:53;;;;;;;10.53;3.77;;;;;;;-0.23;100.00;101236.53;1805850;79;21082;-68
2022/12/02 16:49:20;;;;;;;10.50;4.00;;;;;;;-0.25;100.00;101237.96;1810562;79;21012;-68
2022/12/02 16:51:47;;;;;;;9.13;3.87;;;;;;;-0.27;100.00;101240.28;1801971;79;21054;-68
2022/12/02 16:54:15;;;;;;;13.17;4.30;;;;;;;-0.29;100.00;101237.69;1805970;79;21081;-68
2022/12/02 16:56:42;;;;;;;14.40;4.60;;;;;;;-0.29;100.00;101238.17;1807448;78;21058;-67
2022/12/02 16:59:11;;;;;;;10.77;4.30;;;;;;;-0.30;100.00;101243.96;1809928;79;21026;-68
2022/12/02 17:01:38;;;;;;;11.17;4.23;;;;;;;-0.31;100.00;101244.88;1808373;79;21034;-67
2022/12/02 17:04:06;;;;;;;11.03;3.70;;;;;;;-0.34;100.00;101241.03;1801325;79;21108;-68
2022/12/02 17:06:33;;;;;;;12.03;3.90;;;;;;;-0.34;100.00;101237.52;1806432;78;21030;-69
2022/12/02 17:09:00;;;;;;;10.73;3.70;;;;;;;-0.37;100.00;101237.66;1799495;79;21495;-67
2022/12/02 17:11:27;;;;;;;8.63;3.57;;;;;;;-0.39;100.00;101235.06;1804460;79;21018;-67
2022/12/02 17:13:55;;;;;;;12.83;4.30;;;;;;;-0.40;100.00;101240.85;1805815;79;21029;-67
2022/12/02 17:16:24;;;;;;;8.83;4.07;;;;;;;-0.41;100.00;101241.80;1800562;79;21017;-67
2022/12/02 17:18:51;;;;;;;12.13;4.00;;;;;;;-0.42;100.00;101240.06;1804766;79;21022;-66
2022/12/02 17:21:20;;;;;;;7.47;3.90;;;;;;;-0.43;100.00;101241.46;1802118;79;21022;-67
2022/12/02 17:23:47;;;;;;;6.93;3.50;;;;;;;-0.46;100.00;101252.23;1801288;79;20985;-68
2022/12/02 17:26:16;;;;;;;8.63;3.70;;;;;;;-0.51;100.00;101244.48;1802804;79;20991;-67
2022/12/02 17:28:43;;;;;;;9.87;3.77;;;;;;;-0.52;100.00;101250.72;1799940;79;21058;-68
2022/12/02 17:31:10;;;;;;;9.40;3.60;;;;;;;-0.54;100.00;101249.93;1801387;78;21053;-67
2022/12/02 17:33:38;;;;;;;6.67;3.27;;;;;;;-0.53;100.00;101246.80;1805130;78;21019;-67
2022/12/02 17:36:08;;;;;;;12.23;4.27;;;;;;;-0.56;100.00;101241.17;1800297;78;20986;-68
2022/12/02 17:38:49;;;;;;;8.90;3.73;;;;;;;-0.56;100.00;101237.66;1804787;79;20971;-67
2022/12/02 17:41:14;;;;;;;9.40;3.90;;;;;;;-0.56;100.00;101244.31;1799192;79;21007;-67
2022/12/02 17:43:38;;;;;;;9.37;3.63;;;;;;;-0.58;100.00;101245.70;1798935;79;21035;-66
2022/12/02 17:46:05;;;;;;;11.30;3.53;;;;;;;-0.61;100.00;101250.67;1803606;79;20959;-66
2022/12/02 17:48:33;;;;;;;7.03;3.73;;;;;;;-0.64;100.00;101242.86;1809830;79;20982;-68
2022/12/02 17:51:00;;;;;;;4.87;3.20;;;;;;;-0.65;100.00;101238.47;1801887;79;21075;-68
2022/12/02 17:53:27;;;;;;;9.10;3.77;;;;;;;-0.68;100.00;101235.09;1804001;78;21078;-67
2022/12/02 17:55:55;;;;;;;9.27;3.47;;;;;;;-0.68;100.00;101233.77;1799780;79;21039;-68
2022/12/02 17:58:22;;;;;;;6.37;3.57;;;;;;;-0.70;100.00;101235.63;1804245;79;21027;-68
2022/12/02 18:00:49;;;;;;;9.43;3.80;;;;;;;-0.71;100.00;101234.75;1801220;79;21017;-68
2022/12/02 18:03:17;;;;;;;7.30;3.37;;;;;;;-0.72;100.00;101237.02;1803717;78;21015;-68
2022/12/02 18:05:44;;;;;;;12.63;4.07;;;;;;;-0.72;100.00;101241.48;1803656;79;21081;-68
2022/12/02 18:08:12;;;;;;;9.97;3.60;;;;;;;-0.74;100.00;101246.86;1807332;78;20990;-66
2022/12/02 18:10:40;;;;;;;10.73;3.53;;;;;;;-0.77;100.00;101245.66;1804074;79;21009;-69
2022/12/02 18:13:08;;;;;;;11.87;3.60;;;;;;;-0.79;100.00;101238.23;1809340;79;21011;-67
2022/12/02 18:15:35;;;;;;;8.70;3.90;;;;;;;-0.79;100.00;101240.41;1798802;79;21061;-67
2022/12/02 18:18:03;;;;;;;9.43;3.83;;;;;;;-0.80;100.00;101237.38;1808035;79;21073;-68
2022/12/02 18:20:31;;;;;;;6.70;3.43;;;;;;;-0.80;100.00;101237.83;1810115;78;21004;-67
2022/12/02 18:22:58;;;;;;;11.93;3.97;;;;;;;-0.81;100.00;101247.59;1806527;79;21030;-68
2022/12/02 18:25:26;;;;;;;8.77;4.03;;;;;;;-0.82;100.00;101239.22;1805625;79;21033;-67
2022/12/02 18:27:53;;;;;;;10.70;3.60;;;;;;;-0.82;100.00;101231.72;1798788;78;21008;-67
2022/12/02 18:30:20;;;;;;;10.50;3.67;;;;;;;-0.83;100.00;101244.15;1800441;78;21069;-68
2022/12/02 18:32:48;;;;;;;9.20;3.73;;;;;;;-0.85;100.00;101238.05;1809759;79;21054;-68
2022/12/02 18:35:16;;;;;;;8.70;3.47;;;;;;;-0.87;100.00;101237.23;1806174;79;21489;-68
2022/12/02 18:37:45;;;;;;;9.97;3.30;;;;;;;-0.87;100.00;101233.72;1805438;79;21019;-67
2022/12/02 18:40:18;;;;;;;7.40;3.50;;;;;;;-0.87;100.00;101240.36;1798344;79;21053;-67
2022/12/02 18:42:45;;;;;;;8.40;3.83;;;;;;;-0.90;100.00;101249.78;1801956;78;21054;-67
2022/12/02 18:45:12;;;;;;;11.77;3.87;;;;;;;-0.93;100.00;101260.09;1798975;79;21065;-68
2022/12/02 18:47:40;;;;;;;7.00;3.30;;;;;;;-0.96;100.00;101252.25;1801491;79;21050;-68
2022/12/02 18:50:08;;;;;;;12.33;4.00;;;;;;;-0.97;100.00;101259.83;1803564;78;21029;-68
2022/12/02 18:52:36;;;;;;;9.17;3.60;;;;;;;-1.00;100.00;101255.98;1801745;79;21038;-68
2022/12/02 18:55:06;;;;;;;10.23;3.60;;;;;;;-1.03;100.00;101258.28;1806519;79;21512;-68
2022/12/02 18:57:33;;;;;;;8.03;3.67;;;;;;;-1.05;100.00;101261.95;1806358;78;21575;-68
2022/12/02 19:00:01;;;;;;;8.00;3.00;;;;;;;-1.07;100.00;101258.50;1813843;79;21405;-67
2022/12/02 19:02:28;;;;;;;8.67;3.33;;;;;;;-1.08;100.00;101264.73;1809472;78;20990;-67
2022/12/02 19:04:56;;;;;;;5.37;3.13;;;;;;;-1.12;100.00;101261.34;1819386;79;21570;-67
2022/12/02 19:07:23;;;;;;;7.10;3.03;;;;;;;-1.15;100.00;101266.81;1806395;77;21003;-68
2022/12/02 19:09:51;;;;;;;7.77;3.50;;;;;;;-1.15;100.00;101264.16;1801464;79;21072;-68
2022/12/02 19:12:18;;;;;;;5.37;2.80;;;;;;;-1.17;100.00;101270.85;1807897;78;21061;-68
2022/12/02 19:14:47;;;;;;;9.13;3.43;;;;;;;-1.18;100.00;101270.91;1805111;79;21038;-69
2022/12/02 19:17:14;;;;;;;8.13;3.37;;;;;;;-1.19;100.00;101268.73;1803890;79;21078;-66
2022/12/02 19:19:41;;;;;;;10.20;3.20;;;;;;;-1.21;100.00;101269.23;1803020;79;20984;-67
2022/12/02 19:22:13;;;;;;;8.67;3.30;;;;;;;-1.21;100.00;101273.22;1812265;79;21035;-68
2022/12/02 19:24:41;;;;;;;5.77;3.07;;;;;;;-1.22;100.00;101267.53;1805548;79;21056;-68
2022/12/02 19:27:08;;;;;;;5.50;3.27;;;;;;;-1.25;100.00;101271.63;1808050;78;21548;-68
2022/12/02 19:29:35;;;;;;;11.47;3.87;;;;;;;-1.27;100.00;101268.19;1804745;78;21023;-68
2022/12/02 19:32:02;;;;;;;10.13;2.97;;;;;;;-1.27;100.00;101276.63;1800266;79;21006;-68
2022/12/02 19:34:29;;;;;;;6.43;3.13;;;;;;;-1.30;100.00;101272.76;1804705;78;21502;-68
2022/12/02 19:36:56;;;;;;;7.77;3.37;;;;;;;-1.31;100.00;101280.31;1802705;79;21013;-67
2022/12/02 19:39:24;;;;;;;8.47;3.50;;;;;;;-1.35;100.00;101268.96;1803530;79;21093;-66
2022/12/02 19:41:51;;;;;;;10.00;3.47;;;;;;;-1.38;100.00;101271.73;1800870;79;20998;-68
2022/12/02 19:44:18;;;;;;;7.10;3.50;;;;;;;-1.40;100.00;101277.13;1801768;79;21510;-67
2022/12/02 19:46:46;;;;;;;5.33;3.07;;;;;;;-1.42;100.00;101270.14;1801358;78;21055;-68
2022/12/02 19:49:13;;;;;;;8.80;3.03;;;;;;;-1.45;100.00;101268.94;1801848;79;21480;-67
2022/12/02 19:51:40;;;;;;;6.13;3.30;;;;;;;-1.48;100.00;101271.27;1803621;79;21048;-67
2022/12/02 19:54:07;;;;;;;6.50;2.87;;;;;;;-1.50;100.00;101272.28;1801138;79;21022;-67
2022/12/02 19:56:36;;;;;;;5.87;2.97;;;;;;;-1.53;100.00;101272.78;1804233;79;21043;-68
2022/12/02 19:59:03;;;;;;;6.77;3.13;;;;;;;-1.55;100.00;101276.44;1806315;79;21030;-68
2022/12/02 20:01:30;;;;;;;8.00;3.37;;;;;;;-1.57;100.00;101283.12;1801924;78;21516;-68
2022/12/02 20:03:57;;;;;;;9.03;3.30;;;;;;;-1.60;100.00;101280.59;1807693;79;21050;-68
2022/12/02 20:06:24;;;;;;;5.83;3.17;;;;;;;-1.63;100.00;101278.52;1804340;78;21038;-67
2022/12/02 20:08:52;;;;;;;8.40;3.43;;;;;;;-1.66;100.00;101282.66;1803492;79;21011;-67
2022/12/02 20:11:20;;;;;;;8.23;3.20;;;;;;;-1.67;100.00;101287.55;1804529;79;21451;-67
2022/12/02 20:13:48;;;;;;;9.10;3.30;;;;;;;-1.68;100.00;101284.04;1814513;78;21480;-67
2022/12/02 20:16:15;;;;;;;5.83;3.10;;;;;;;-1.69;100.00;101284.09;1804676;78;20975;-67
2022/12/02 20:18:43;;;;;;;10.43;3.63;;;;;;;-1.70;100.00;101286.33;1804363;79;21019;-67
2022/12/02 20:21:10;;;;;;;6.50;3.00;;;;;;;-1.69;100.00;101283.63;1810114;79;21031;-68
2022/12/02 20:23:37;;;;;;;5.33;2.83;;;;;;;-1.66;100.00;101286.16;1801858;78;21065;-67
2022/12/02 20:26:05;;;;;;;8.27;3.27;;;;;;;-1.65;100.00;101281.70;1809742;79;21031;-68
2022/12/02 20:28:32;;;;;;;5.90;2.73;;;;;;;-1.62;100.00;101283.77;1800718;78;21054;-67
2022/12/02 20:30:59;;;;;;;6.73;3.40;;;;;;;-1.59;100.00;101285.45;1805431;78;21502;-66
2022/12/02 20:33:26;;;;;;;5.20;2.93;;;;;;;-1.57;100.00;101290.23;1804370;79;21015;-67
2022/12/02 20:35:54;;;;;;;6.00;3.17;;;;;;;-1.56;100.00;101292.83;1801528;78;20978;-67
2022/12/02 20:38:21;;;;;;;6.27;3.30;;;;;;;-1.54;100.00;101300.69;1812557;78;21039;-67
2022/12/02 20:40:49;;;;;;;9.63;3.10;;;;;;;-1.55;100.00;101282.59;1804269;79;21065;-68
2022/12/02 20:43:16;;;;;;;8.30;3.40;;;;;;;-1.54;100.00;101288.31;1807387;79;21030;-67
2022/12/02 20:45:43;;;;;;;6.77;3.27;;;;;;;-1.54;100.00;101287.42;1797973;78;21014;-67
2022/12/02 20:48:11;;;;;;;4.60;2.67;;;;;;;-1.53;100.00;101295.33;1810154;79;21069;-66
2022/12/02 20:50:39;;;;;;;6.53;3.30;;;;;;;-1.52;100.00;101289.58;1809267;78;21025;-65
2022/12/02 20:53:06;;;;;;;8.87;3.43;;;;;;;-1.53;100.00;101283.39;1802674;79;20974;-68
2022/12/02 20:55:34;;;;;;;7.67;3.50;;;;;;;-1.51;100.00;101297.06;1805051;79;21575;-68
2022/12/02 20:58:01;;;;;;;6.30;3.10;;;;;;;-1.51;100.00;101289.96;1804426;79;21072;-68
2022/12/02 21:00:30;;;;;;;7.37;3.20;;;;;;;-1.50;100.00;101294.36;1810152;79;21063;-68
2022/12/02 21:02:58;;;;;;;7.13;3.17;;;;;;;-1.48;100.00;101291.64;1802503;79;21058;-67
2022/12/02 21:05:25;;;;;;;7.73;3.20;;;;;;;-1.49;100.00;101292.55;1804052;79;21030;-68
2022/12/02 21:07:52;;;;;;;6.07;3.00;;;;;;;-1.49;100.00;101293.88;1803715;78;21033;-68
2022/12/02 21:10:19;;;;;;;7.77;3.60;;;;;;;-1.49;100.00;101288.10;1805624;79;21050;-67
2022/12/02 21:12:48;;;;;;;8.43;3.50;;;;;;;-1.50;100.00;101294.36;1803413;79;20994;-68
2022/12/02 21:15:16;;;;;;;6.30;3.40;;;;;;;-1.48;100.00;101300.92;1804790;79;20984;-68
2022/12/02 21:17:43;;;;;;;6.33;3.13;;;;;;;-1.48;100.00;101287.66;1802269;79;21053;-69